Time;durP1;ratioP1;P1;durP2;ratioP2;P2;SDS_P1;SDS_P2;PMS_P1;PMS_P2;Temp;Humidity;BMP_temperature;BMP_pressure;BME280_temperature;BME280_humidity;BME280_pressure;Samples;Min_cycle;Max_cycle;Signal;HPM_P1;HPM_P2
2022/04/03 00:01:30;;;;;;;3.38;1.42;;;;;;;18.87;36.12;102247.28;5053439;28;20035;-55
2022/04/03 00:03:55;;;;;;;3.08;1.30;;;;;;;18.82;36.27;102246.72;5052971;28;20061;-54
2022/04/03 00:06:22;;;;;;;3.30;1.10;;;;;;;18.81;36.50;102240.56;5052891;28;20028;-55
2022/04/03 00:08:48;;;;;;;2.75;1.15;;;;;;;18.80;36.23;102249.44;5053065;28;20028;-54
2022/04/03 00:11:13;;;;;;;2.33;1.10;;;;;;;18.76;36.39;102242.66;5052928;28;20041;-55
2022/04/03 00:13:38;;;;;;;3.00;1.27;;;;;;;18.76;36.30;102241.81;5052041;28;20044;-56
2022/04/03 00:16:04;;;;;;;3.17;1.27;;;;;;;18.74;35.97;102241.03;5052784;28;20025;-54
2022/04/03 00:18:33;;;;;;;2.42;1.00;;;;;;;18.76;35.79;102250.56;5052290;28;20500;-54
2022/04/03 00:20:59;;;;;;;3.95;1.20;;;;;;;18.80;35.81;102245.94;5052356;28;20102;-54
2022/04/03 00:23:24;;;;;;;3.30;1.23;;;;;;;18.84;35.58;102244.84;5052852;28;20465;-54
2022/04/03 00:25:51;;;;;;;2.55;1.00;;;;;;;18.90;35.22;102243.59;5052136;28;20037;-53
2022/04/03 00:28:16;;;;;;;2.85;1.10;;;;;;;18.94;35.23;102247.75;5052689;28;20025;-54
2022/04/03 00:30:42;;;;;;;2.85;1.60;;;;;;;18.96;35.08;102246.72;5052623;28;20024;-55
2022/04/03 00:33:08;;;;;;;3.97;1.50;;;;;;;18.98;34.88;102241.34;5051593;28;20063;-53
2022/04/03 00:35:37;;;;;;;3.17;1.30;;;;;;;18.99;34.90;102246.53;5052692;28;20025;-51
2022/04/03 00:38:02;;;;;;;3.30;1.38;;;;;;;19.01;34.90;102241.16;5052257;28;20040;-54
2022/04/03 00:40:27;;;;;;;2.67;1.15;;;;;;;19.03;34.63;102241.91;5052008;28;20017;-54
2022/04/03 00:42:53;;;;;;;2.28;1.08;;;;;;;19.04;34.83;102246.22;5052560;28;20052;-54
2022/04/03 00:45:19;;;;;;;3.67;1.63;;;;;;;19.02;34.66;102241.03;5052641;28;20514;-54
2022/04/03 00:47:47;;;;;;;3.42;1.20;;;;;;;19.02;34.51;102241.03;5051885;28;20021;-54
2022/04/03 00:50:12;;;;;;;3.22;1.20;;;;;;;19.02;34.65;102242.84;5052111;28;20056;-55
2022/04/03 00:52:37;;;;;;;2.40;1.10;;;;;;;19.00;34.85;102244.72;5053529;28;20057;-55
2022/04/03 00:55:03;;;;;;;2.97;1.38;;;;;;;18.98;34.95;102244.81;5055828;28;20035;-54
2022/04/03 00:57:29;;;;;;;3.95;1.45;;;;;;;18.97;34.87;102247.56;5056532;28;20396;-54
2022/04/03 00:59:55;;;;;;;2.70;1.23;;;;;;;18.94;34.94;102247.75;5056251;28;20017;-54
2022/04/03 01:02:20;;;;;;;3.15;1.30;;;;;;;18.92;34.90;102239.94;5055758;28;20036;-55
2022/04/03 01:04:46;;;;;;;3.22;1.30;;;;;;;18.91;34.51;102234.75;5056432;28;20021;-54
2022/04/03 01:07:12;;;;;;;2.63;1.20;;;;;;;18.90;34.62;102238.31;5056263;28;20025;-55
2022/04/03 01:09:38;;;;;;;3.85;1.40;;;;;;;18.88;34.86;102242.84;5055859;28;20282;-55
2022/04/03 01:12:05;;;;;;;3.13;1.38;;;;;;;18.88;34.84;102235.75;5056055;28;20053;-54
2022/04/03 01:14:34;;;;;;;2.97;1.20;;;;;;;18.87;34.69;102239.38;5056331;28;20033;-54
2022/04/03 01:16:59;;;;;;;2.45;1.10;;;;;;;18.90;34.82;102235.66;5055151;28;20388;-55
2022/04/03 01:19:25;;;;;;;4.15;1.33;;;;;;;18.92;34.84;102237.28;5056156;28;20021;-55
2022/04/03 01:21:50;;;;;;;2.47;1.02;;;;;;;18.94;34.68;102238.03;5055241;28;20028;-53
2022/04/03 01:24:17;;;;;;;2.30;1.10;;;;;;;18.97;34.66;102245.75;5056096;28;20029;-54
2022/04/03 01:26:43;;;;;;;2.53;1.13;;;;;;;18.98;34.31;102236.06;5056183;28;20043;-55
2022/04/03 01:29:09;;;;;;;2.42;1.02;;;;;;;18.98;34.23;102236.91;5055310;28;20476;-55
2022/04/03 01:31:34;;;;;;;2.75;1.27;;;;;;;18.98;34.48;102236.06;5056341;28;20021;-55
2022/04/03 01:33:59;;;;;;;3.03;1.30;;;;;;;18.99;34.17;102220.13;5055583;28;20071;-54
2022/04/03 01:36:25;;;;;;;1.93;1.00;;;;;;;18.99;34.25;102233.31;5055306;28;20735;-54
2022/04/03 01:38:50;;;;;;;3.47;1.48;;;;;;;18.98;34.44;102239.53;5055807;28;20611;-55
2022/04/03 01:41:15;;;;;;;2.60;1.20;;;;;;;18.98;34.53;102241.34;5056161;28;20037;-54
2022/04/03 01:43:43;;;;;;;5.80;1.60;;;;;;;18.95;34.47;102228.34;5055208;28;20025;-56
2022/04/03 01:46:09;;;;;;;2.72;1.10;;;;;;;18.95;34.39;102225.69;5055304;28;20024;-54
2022/04/03 01:48:34;;;;;;;4.47;1.40;;;;;;;18.97;34.75;102227.28;5055753;28;20036;-56
2022/04/03 01:51:02;;;;;;;2.25;1.10;;;;;;;18.99;34.98;102238.63;5054697;28;20044;-56
2022/04/03 01:53:28;;;;;;;3.45;1.38;;;;;;;19.02;34.54;102224.34;5055879;28;20060;-55
2022/04/03 01:56:01;;;;;;;2.70;1.20;;;;;;;19.03;34.53;102218.13;5055501;28;20118;-58
2022/04/03 01:58:26;;;;;;;3.10;1.30;;;;;;;19.05;34.71;102221.50;5055040;28;20166;-54
2022/04/03 02:00:52;;;;;;;3.05;1.10;;;;;;;19.07;34.36;102216.97;5055183;28;20055;-56
2022/04/03 02:03:17;;;;;;;2.28;1.02;;;;;;;19.08;34.68;102223.94;5055382;28;20103;-56
2022/04/03 02:05:43;;;;;;;2.40;1.30;;;;;;;19.08;34.22;102221.31;5054849;28;20033;-56
2022/04/03 02:08:08;;;;;;;2.65;1.17;;;;;;;19.09;34.17;102225.66;5055117;28;20072;-55
2022/04/03 02:10:33;;;;;;;2.72;1.15;;;;;;;19.09;34.03;102222.16;5054941;28;20041;-55
2022/04/03 02:12:59;;;;;;;3.03;1.10;;;;;;;19.07;33.90;102211.69;5053895;28;20445;-54
2022/04/03 02:15:24;;;;;;;2.67;1.40;;;;;;;19.07;34.24;102216.13;5055234;28;20025;-55
2022/04/03 02:17:49;;;;;;;3.03;1.23;;;;;;;19.07;34.49;102214.31;5054702;28;20391;-54
2022/04/03 02:20:15;;;;;;;2.85;1.20;;;;;;;19.10;34.62;102215.94;5054602;28;20544;-56
2022/04/03 02:22:40;;;;;;;3.00;1.17;;;;;;;19.09;34.56;102211.59;5055185;28;20141;-56
2022/04/03 02:25:14;;;;;;;2.90;1.10;;;;;;;19.12;34.62;102216.66;5054214;28;20365;-55
2022/04/03 02:27:43;;;;;;;3.58;1.35;;;;;;;19.13;34.37;102211.28;5054998;28;20104;-55
2022/04/03 02:30:10;;;;;;;3.10;1.40;;;;;;;19.14;34.20;102215.63;5054729;28;20033;-55
2022/04/03 02:32:39;;;;;;;4.20;1.50;;;;;;;19.15;34.40;102216.47;5054012;28;20033;-54
2022/04/03 02:35:06;;;;;;;2.72;1.25;;;;;;;19.15;33.91;102217.34;5054459;28;20083;-56
2022/04/03 02:37:33;;;;;;;2.85;1.20;;;;;;;19.14;34.11;102207.72;5054959;28;20385;-53
2022/04/03 02:39:58;;;;;;;2.55;1.20;;;;;;;19.14;33.91;102218.28;5053619;28;20389;-55
2022/04/03 02:42:23;;;;;;;2.40;1.10;;;;;;;19.14;34.00;102214.81;5054768;28;20054;-56
2022/04/03 02:44:48;;;;;;;2.57;1.13;;;;;;;19.11;34.04;102210.56;5054451;28;20021;-55
2022/04/03 02:47:17;;;;;;;3.10;1.23;;;;;;;19.11;34.05;102210.56;5053810;28;20029;-55
2022/04/03 02:49:57;;;;;;;3.03;1.50;;;;;;;19.10;34.15;102208.84;5054510;28;20461;-55
2022/04/03 02:52:28;;;;;;;2.90;1.42;;;;;;;19.10;34.43;102208.00;5054678;28;20083;-55
2022/04/03 02:54:54;;;;;;;2.55;1.10;;;;;;;19.12;34.33;102219.31;5053475;28;20096;-55
2022/04/03 02:57:19;;;;;;;2.47;1.20;;;;;;;19.13;34.40;102219.22;5054413;28;20116;-53
2022/04/03 02:59:44;;;;;;;3.33;1.30;;;;;;;19.15;34.38;102221.75;5054277;28;20532;-55
2022/04/03 03:02:11;;;;;;;3.38;1.35;;;;;;;19.15;34.32;102220.00;5053484;28;20788;-55
2022/04/03 03:04:37;;;;;;;3.00;1.35;;;;;;;19.15;33.98;102225.28;5054469;28;20029;-54
2022/04/03 03:07:06;;;;;;;3.38;1.33;;;;;;;19.16;34.21;102218.19;5053799;28;20487;-54
2022/04/03 03:09:32;;;;;;;2.50;1.30;;;;;;;19.15;33.80;102221.75;5053421;28;20460;-54
2022/04/03 03:12:00;;;;;;;4.38;1.50;;;;;;;19.15;33.76;102227.03;5053671;28;20041;-54
2022/04/03 03:14:27;;;;;;;3.05;1.20;;;;;;;19.13;33.80;102224.50;5053385;28;20158;-55
2022/04/03 03:16:52;;;;;;;3.58;1.30;;;;;;;19.13;33.78;102224.50;5053410;28;20060;-55
2022/04/03 03:19:17;;;;;;;3.08;1.30;;;;;;;19.13;33.88;102223.66;5054122;28;20072;-55
2022/04/03 03:21:43;;;;;;;3.47;1.33;;;;;;;19.11;33.84;102225.56;5053128;28;20033;-53
2022/04/03 03:24:09;;;;;;;2.78;1.30;;;;;;;19.13;34.39;102221.84;5053625;28;20045;-54
2022/04/03 03:26:35;;;;;;;3.15;1.20;;;;;;;19.14;34.17;102226.22;5053676;28;20372;-56
2022/04/03 03:29:00;;;;;;;2.22;1.00;;;;;;;19.16;34.03;102226.94;5052658;28;20032;-56
2022/04/03 03:31:25;;;;;;;2.90;1.23;;;;;;;19.17;34.28;102231.31;5053992;28;20045;-55
2022/04/03 03:33:50;;;;;;;3.97;1.40;;;;;;;19.18;33.91;102230.38;5053635;28;20029;-56
2022/04/03 03:36:16;;;;;;;2.43;1.20;;;;;;;19.19;33.87;102231.19;5052774;28;20036;-56
2022/04/03 03:38:42;;;;;;;2.95;1.40;;;;;;;19.16;33.64;102221.66;5053737;28;20273;-53
2022/04/03 03:41:07;;;;;;;3.00;1.33;;;;;;;19.19;34.07;102231.19;5053186;28;20029;-55
2022/04/03 03:43:32;;;;;;;2.97;1.20;;;;;;;19.17;33.71;102236.59;5052699;28;20029;-55
2022/04/03 03:45:58;;;;;;;3.08;1.20;;;;;;;19.17;33.68;102235.75;5053361;28;20305;-53
2022/04/03 03:48:23;;;;;;;2.17;1.10;;;;;;;19.13;33.73;102232.44;5053606;28;20028;-55
2022/04/03 03:50:49;;;;;;;3.72;1.40;;;;;;;19.14;33.85;102234.13;5052796;28;20472;-53
2022/04/03 03:53:14;;;;;;;2.73;1.33;;;;;;;19.14;34.18;102234.13;5053304;28;20366;-55
2022/04/03 03:55:39;;;;;;;4.18;1.50;;;;;;;19.16;34.23;102229.59;5053250;28;20378;-54
2022/04/03 03:58:05;;;;;;;3.25;1.33;;;;;;;19.17;33.93;102227.81;5052077;28;20057;-54
2022/04/03 04:00:30;;;;;;;2.88;1.30;;;;;;;19.18;33.99;102225.09;5053400;28;20373;-54
2022/04/03 04:02:58;;;;;;;2.55;1.30;;;;;;;19.18;33.84;102227.72;5053027;28;20029;-55
2022/04/03 04:05:24;;;;;;;2.85;1.13;;;;;;;19.19;33.78;102234.69;5052609;28;20028;-53
2022/04/03 04:07:49;;;;;;;3.70;1.50;;;;;;;19.19;33.71;102236.50;5052842;28;20032;-55
2022/04/03 04:10:16;;;;;;;3.03;1.30;;;;;;;19.18;33.50;102240.06;5052876;28;20281;-54
2022/04/03 04:12:46;;;;;;;3.35;1.45;;;;;;;19.17;33.44;102238.38;5052381;28;20037;-56
2022/04/03 04:15:12;;;;;;;3.42;1.38;;;;;;;19.15;33.50;102233.19;5052813;28;20098;-56
2022/04/03 04:17:42;;;;;;;2.50;1.23;;;;;;;19.15;33.78;102235.84;5052343;28;20023;-55
2022/04/03 04:20:11;;;;;;;3.00;1.40;;;;;;;19.15;34.05;102238.50;5052738;28;20107;-61
2022/04/03 04:22:37;;;;;;;3.00;1.30;;;;;;;19.15;34.05;102235.84;5052786;28;20028;-55
2022/04/03 04:25:02;;;;;;;3.80;1.50;;;;;;;19.16;33.92;102234.03;5051697;28;20025;-56
2022/04/03 04:27:31;;;;;;;2.92;1.30;;;;;;;19.15;34.16;102235.84;5052267;28;20025;-56
2022/04/03 04:29:59;;;;;;;3.58;1.33;;;;;;;19.16;33.56;102237.53;5052688;28;20075;-56
2022/04/03 04:32:26;;;;;;;3.25;1.30;;;;;;;19.16;33.73;102240.16;5052209;28;20115;-54
2022/04/03 04:34:51;;;;;;;3.30;1.30;;;;;;;19.15;33.66;102246.41;5052403;28;20033;-54
2022/04/03 04:37:17;;;;;;;3.45;1.42;;;;;;;19.16;33.59;102241.97;5052660;28;20154;-54
2022/04/03 04:39:44;;;;;;;2.08;1.17;;;;;;;19.15;33.79;102258.75;5051838;28;20468;-51
2022/04/03 04:42:09;;;;;;;3.33;1.30;;;;;;;19.14;33.32;102252.63;5052530;28;20025;-55
2022/04/03 04:44:35;;;;;;;2.88;1.23;;;;;;;19.12;33.75;102251.91;5052803;28;20108;-54
2022/04/03 04:47:00;;;;;;;3.17;1.30;;;;;;;19.13;33.75;102256.22;5051598;28;20409;-56
2022/04/03 04:49:25;;;;;;;2.85;1.42;;;;;;;19.13;33.86;102250.09;5052584;28;20057;-54
2022/04/03 04:51:53;;;;;;;2.72;1.40;;;;;;;19.13;33.80;102250.09;5052291;28;20029;-54
2022/04/03 04:54:19;;;;;;;3.83;1.50;;;;;;;19.15;33.82;102256.13;5051917;28;20119;-53
2022/04/03 04:56:44;;;;;;;2.33;1.10;;;;;;;19.13;33.77;102253.56;5052653;28;20053;-52
2022/04/03 04:59:10;;;;;;;3.40;1.58;;;;;;;19.16;33.63;102257.81;5052317;28;20036;-54
2022/04/03 05:01:36;;;;;;;3.05;1.40;;;;;;;19.15;33.67;102253.47;5051639;28;20577;-55
2022/04/03 05:04:04;;;;;;;3.08;1.30;;;;;;;19.15;33.62;102267.56;5052152;28;20037;-55
2022/04/03 05:06:31;;;;;;;3.15;1.40;;;;;;;19.14;33.54;102268.50;5052379;28;20029;-53
2022/04/03 05:09:02;;;;;;;2.83;1.30;;;;;;;19.14;33.80;102270.28;5051224;28;20103;-54
2022/04/03 05:11:30;;;;;;;2.67;1.20;;;;;;;19.15;34.33;102274.63;5052132;28;20126;-55
2022/04/03 05:13:55;;;;;;;3.47;1.30;;;;;;;19.15;34.77;102280.78;5051188;28;20037;-53
2022/04/03 05:16:21;;;;;;;2.72;1.20;;;;;;;19.17;35.37;102272.75;5052282;28;20373;-54
2022/04/03 05:18:52;;;;;;;3.28;1.48;;;;;;;19.19;35.24;102271.69;5052275;28;20491;-53
2022/04/03 05:21:17;;;;;;;3.63;1.40;;;;;;;19.21;35.24;102274.22;5051335;28;20013;-54
2022/04/03 05:23:43;;;;;;;3.42;1.20;;;;;;;19.24;35.04;102283.78;5052268;28;20032;-54
2022/04/03 05:26:08;;;;;;;2.65;1.10;;;;;;;19.26;34.96;102287.16;5051973;28;20035;-53
2022/04/03 05:28:35;;;;;;;3.23;1.40;;;;;;;19.28;34.86;102285.25;5051460;28;20376;-53
2022/04/03 05:31:01;;;;;;;2.60;1.30;;;;;;;19.29;34.72;102281.69;5051742;28;20278;-54
2022/04/03 05:33:26;;;;;;;2.38;1.27;;;;;;;19.31;34.80;102274.50;5051915;28;20048;-55
2022/04/03 05:35:51;;;;;;;4.22;1.50;;;;;;;19.31;34.92;102283.28;5050818;28;20112;-56
2022/04/03 05:38:23;;;;;;;2.90;1.45;;;;;;;19.33;34.97;102289.31;5052754;28;20027;-54
2022/04/03 05:40:48;;;;;;;2.95;1.27;;;;;;;19.34;34.56;102292.81;5055675;28;20025;-55
2022/04/03 05:43:13;;;;;;;3.28;1.35;;;;;;;19.37;34.97;102295.25;5054719;28;20071;-56
2022/04/03 05:45:39;;;;;;;2.90;1.10;;;;;;;19.37;34.74;102290.81;5055673;28;20107;-55
2022/04/03 05:48:05;;;;;;;2.72;1.20;;;;;;;19.38;34.90;102303.09;5055293;28;20024;-55
2022/04/03 05:50:33;;;;;;;4.68;1.30;;;;;;;19.39;34.46;102298.63;5054678;28;20064;-54
2022/04/03 05:52:59;;;;;;;3.70;1.58;;;;;;;19.39;34.47;102301.28;5055160;28;20499;-55
2022/04/03 05:55:24;;;;;;;2.38;1.23;;;;;;;19.40;35.07;102303.00;5055398;28;20053;-55
2022/04/03 05:57:52;;;;;;;2.50;1.20;;;;;;;19.39;35.55;102296.00;5054406;28;20063;-56
2022/04/03 06:00:19;;;;;;;2.97;1.27;;;;;;;19.40;35.87;102287.13;5055387;28;20278;-55
2022/04/03 06:02:48;;;;;;;2.58;1.13;;;;;;;19.42;35.76;102308.19;5055178;28;20067;-54
2022/04/03 06:05:16;;;;;;;2.47;1.10;;;;;;;19.43;35.99;102301.94;5054692;28;20031;-54
2022/04/03 06:07:41;;;;;;;2.45;1.05;;;;;;;19.44;35.96;102307.16;5055570;28;20017;-55
2022/04/03 06:10:07;;;;;;;2.15;1.05;;;;;;;19.44;36.38;102307.16;5054206;28;20025;-54
2022/04/03 06:12:32;;;;;;;2.25;1.10;;;;;;;19.45;36.31;102305.34;5055203;28;20043;-55
2022/04/03 06:15:03;;;;;;;2.03;1.13;;;;;;;19.47;36.00;102306.94;5054839;28;20155;-54
2022/04/03 06:17:29;;;;;;;3.05;1.30;;;;;;;19.49;36.16;102317.44;5054145;28;20032;-54
2022/04/03 06:19:54;;;;;;;3.15;1.13;;;;;;;19.49;36.32;102314.78;5054726;28;20029;-55
2022/04/03 06:22:19;;;;;;;3.17;1.10;;;;;;;19.50;36.06;102316.47;5054858;28;20049;-56
2022/04/03 06:24:44;;;;;;;3.55;1.15;;;;;;;19.50;35.76;102304.13;5054233;28;20028;-55
2022/04/03 06:27:10;;;;;;;1.70;1.03;;;;;;;19.52;36.11;102319.88;5054599;28;20112;-54
2022/04/03 06:29:35;;;;;;;2.97;1.20;;;;;;;19.52;35.84;102318.06;5054956;28;20336;-56
2022/04/03 06:32:00;;;;;;;2.70;1.10;;;;;;;19.53;36.04;102317.09;5053668;28;20340;-55
2022/04/03 06:34:25;;;;;;;2.15;1.00;;;;;;;19.54;35.95;102313.53;5054886;28;20673;-54
2022/04/03 06:36:53;;;;;;;2.73;1.17;;;;;;;19.53;36.07;102303.88;5054580;28;20048;-55
2022/04/03 06:39:18;;;;;;;2.80;1.10;;;;;;;19.55;36.13;102302.00;5053886;28;20336;-53
2022/04/03 06:41:44;;;;;;;3.72;1.30;;;;;;;19.55;35.93;102302.00;5054731;28;20465;-54
2022/04/03 06:44:09;;;;;;;3.13;1.33;;;;;;;19.60;36.76;102304.38;5054382;28;20108;-56
2022/04/03 06:46:34;;;;;;;2.17;0.90;;;;;;;19.61;36.41;102302.56;5053775;28;20119;-55
2022/04/03 06:49:00;;;;;;;3.42;1.05;;;;;;;19.64;36.29;102305.84;5054575;28;20034;-54
2022/04/03 06:51:28;;;;;;;3.25;1.23;;;;;;;19.69;36.34;102303.78;5053448;28;20044;-53
2022/04/03 06:53:53;;;;;;;2.55;1.10;;;;;;;19.71;36.41;102308.94;5053244;28;20461;-52
2022/04/03 06:56:19;;;;;;;2.87;1.10;;;;;;;19.71;36.03;102307.16;5054746;28;20044;-56
2022/04/03 06:58:45;;;;;;;3.92;1.60;;;;;;;19.66;35.55;102300.47;5054251;28;20510;-59
2022/04/03 07:01:10;;;;;;;2.55;1.27;;;;;;;19.67;36.15;102308.28;5052772;28;20064;-58
2022/04/03 07:03:35;;;;;;;3.10;1.30;;;;;;;19.67;36.69;102304.81;5054455;28;20037;-55
2022/04/03 07:06:03;;;;;;;3.90;1.43;;;;;;;19.75;36.25;102306.00;5054035;28;20284;-56
2022/04/03 07:08:29;;;;;;;3.95;1.40;;;;;;;19.85;36.29;102316.88;5053575;28;20266;-56
2022/04/03 07:10:55;;;;;;;2.75;1.08;;;;;;;19.96;36.04;102318.78;5053813;28;20431;-58
2022/04/03 07:13:20;;;;;;;4.63;1.25;;;;;;;20.06;35.88;102319.03;5054004;28;20384;-56
2022/04/03 07:15:45;;;;;;;2.27;1.10;;;;;;;20.15;36.03;102307.00;5053299;28;20032;-56
2022/04/03 07:18:11;;;;;;;2.60;1.10;;;;;;;20.24;35.73;102314.31;5053821;28;20369;-56
2022/04/03 07:20:36;;;;;;;3.37;1.37;;;;;;;20.33;35.93;102315.50;5053212;28;20278;-55
2022/04/03 07:23:01;;;;;;;2.92;1.27;;;;;;;20.40;36.27;102312.31;5053775;28;20286;-59
2022/04/03 07:25:27;;;;;;;2.72;1.10;;;;;;;20.47;36.14;102318.03;5054151;28;20021;-58
2022/04/03 07:27:52;;;;;;;3.60;1.13;;;;;;;20.51;36.11;102314.25;5052786;28;20025;-58
2022/04/03 07:30:17;;;;;;;3.45;1.17;;;;;;;20.56;36.03;102316.59;5053541;28;20491;-58
2022/04/03 07:32:43;;;;;;;2.60;1.00;;;;;;;20.61;35.95;102317.94;5053715;28;20028;-59
2022/04/03 07:35:09;;;;;;;4.10;1.20;;;;;;;20.70;35.81;102320.97;5052825;28;20033;-59
2022/04/03 07:37:35;;;;;;;2.88;1.30;;;;;;;20.74;36.31;102325.94;5053709;28;20299;-60
2022/04/03 07:40:04;;;;;;;4.60;1.40;;;;;;;20.79;36.46;102325.63;5053066;28;20036;-59
2022/04/03 07:42:29;;;;;;;4.28;1.60;;;;;;;20.83;36.74;102321.81;5052713;28;20037;-58
2022/04/03 07:44:57;;;;;;;3.55;1.52;;;;;;;20.86;37.08;102326.91;5053350;28;20036;-57
2022/04/03 07:47:23;;;;;;;3.92;1.40;;;;;;;20.88;37.21;102332.94;5053551;28;20029;-56
2022/04/03 07:49:48;;;;;;;4.60;1.90;;;;;;;20.91;37.33;102331.88;5052640;28;20078;-59
2022/04/03 07:52:14;;;;;;;4.93;1.88;;;;;;;20.94;37.64;102326.38;5053506;28;20102;-57
2022/04/03 07:54:40;;;;;;;3.70;1.40;;;;;;;20.96;37.69;102325.28;5053245;28;20033;-58
2022/04/03 07:57:06;;;;;;;4.68;1.67;;;;;;;20.99;37.57;102329.53;5052213;28;20488;-58
2022/04/03 07:59:34;;;;;;;5.55;1.80;;;;;;;20.99;37.33;102333.03;5053133;28;20053;-58
2022/04/03 08:02:00;;;;;;;4.20;1.45;;;;;;;21.01;37.57;102327.63;5052946;28;20028;-58
2022/04/03 08:04:25;;;;;;;2.88;1.40;;;;;;;21.01;37.20;102333.78;5052554;28;20021;-58
2022/04/03 08:06:53;;;;;;;4.43;1.60;;;;;;;21.03;37.14;102328.38;5053188;28;20032;-59
2022/04/03 08:09:20;;;;;;;4.03;1.55;;;;;;;21.04;37.04;102335.34;5053429;28;20049;-60
2022/04/03 08:11:45;;;;;;;4.65;1.45;;;;;;;21.05;37.00;102334.41;5052736;28;20102;-59
2022/04/03 08:14:11;;;;;;;4.70;1.60;;;;;;;21.05;37.32;102328.28;5052571;28;20025;-59
2022/04/03 08:16:36;;;;;;;3.92;1.40;;;;;;;21.03;37.39;102336.31;5053126;28;20029;-56
2022/04/03 08:19:07;;;;;;;3.08;1.25;;;;;;;21.01;37.54;102333.78;5051775;28;20024;-58
2022/04/03 08:21:33;;;;;;;3.20;1.00;;;;;;;21.02;37.61;102331.97;5053148;28;20024;-59
2022/04/03 08:23:59;;;;;;;3.33;1.35;;;;;;;21.05;37.28;102330.91;5051775;28;20025;-59
2022/04/03 08:26:27;;;;;;;3.20;1.40;;;;;;;21.09;37.51;102337.69;5052910;28;20108;-60
2022/04/03 08:28:55;;;;;;;4.22;1.40;;;;;;;21.10;37.18;102334.09;5052648;28;20025;-59
2022/04/03 08:31:23;;;;;;;4.68;1.42;;;;;;;21.12;36.29;102345.41;5052006;28;20492;-58
2022/04/03 08:33:49;;;;;;;3.63;1.23;;;;;;;21.11;36.85;102335.75;5052695;28;20033;-60
2022/04/03 08:36:15;;;;;;;3.40;1.30;;;;;;;21.12;37.08;102340.94;5052531;28;20044;-59
2022/04/03 08:38:40;;;;;;;4.25;1.50;;;;;;;21.10;37.03;102342.88;5051903;28;20017;-57
2022/04/03 08:41:05;;;;;;;3.72;1.30;;;;;;;21.07;36.78;102336.94;5052273;28;20024;-59
2022/04/03 08:43:32;;;;;;;3.95;1.30;;;;;;;21.03;36.91;102336.31;5052433;28;20028;-58
2022/04/03 08:45:57;;;;;;;3.53;1.25;;;;;;;20.99;37.10;102338.31;5051688;28;20108;-58
2022/04/03 08:48:23;;;;;;;4.43;1.20;;;;;;;20.98;37.49;102339.28;5052582;28;20100;-57
2022/04/03 08:50:51;;;;;;;4.22;1.23;;;;;;;21.00;37.19;102345.31;5052350;28;20480;-59
2022/04/03 08:53:21;;;;;;;4.43;1.10;;;;;;;21.06;37.46;102346.72;5051842;28;20484;-57
2022/04/03 08:55:47;;;;;;;3.78;1.30;;;;;;;21.04;37.46;102345.94;5052560;28;20403;-55
2022/04/03 08:58:12;;;;;;;4.77;1.20;;;;;;;21.04;37.18;102348.59;5052635;28;20092;-58
2022/04/03 09:00:40;;;;;;;3.90;1.17;;;;;;;21.05;37.32;102342.34;5052557;28;20610;-58
2022/04/03 09:03:06;;;;;;;3.17;1.10;;;;;;;21.01;37.40;102343.50;5052686;28;20065;-57
2022/04/03 09:05:38;;;;;;;3.20;1.50;;;;;;;20.96;37.43;102343.84;5052592;28;20053;-54
2022/04/03 09:08:06;;;;;;;3.85;1.10;;;;;;;20.91;37.53;102339.81;5051241;28;20142;-55
2022/04/03 09:10:33;;;;;;;3.35;1.30;;;;;;;20.85;37.80;102338.44;5052324;28;20109;-57
2022/04/03 09:13:01;;;;;;;2.15;0.90;;;;;;;20.81;37.76;102329.03;5051205;28;20041;-57
2022/04/03 09:15:31;;;;;;;4.07;1.15;;;;;;;20.78;37.88;102338.03;5056313;28;20025;-56
2022/04/03 09:17:59;;;;;;;2.35;0.98;;;;;;;20.76;37.74;102334.63;5056323;28;20102;-56
2022/04/03 09:20:27;;;;;;;3.97;1.23;;;;;;;20.76;37.78;102337.28;5055678;28;20023;-58
2022/04/03 09:22:58;;;;;;;3.20;0.90;;;;;;;20.76;37.85;102333.78;5055865;28;20029;-57
2022/04/03 09:25:39;;;;;;;3.35;1.30;;;;;;;20.76;37.56;102329.34;5055968;28;20079;-55
2022/04/03 09:28:14;;;;;;;4.80;1.20;;;;;;;20.78;37.54;102318.63;5055015;28;20029;-54
2022/04/03 09:30:44;;;;;;;2.63;1.17;;;;;;;20.76;37.61;102328.47;5056158;28;20126;-56
2022/04/03 09:33:15;;;;;;;2.95;1.13;;;;;;;20.72;37.66;102325.19;5055624;28;20021;-55
2022/04/03 09:36:01;;;;;;;3.00;1.20;;;;;;;20.69;37.29;102321.91;5055428;28;20029;-53
2022/04/03 09:38:28;;;;;;;1.73;0.77;;;;;;;20.67;37.69;102318.53;5055995;28;20102;-56
2022/04/03 09:40:54;;;;;;;2.47;0.80;;;;;;;20.62;37.50;102311.72;5055586;28;20021;-59
2022/04/03 09:43:22;;;;;;;4.43;1.17;;;;;;;20.64;37.47;102320.41;5055091;28;20047;-56
2022/04/03 09:46:03;;;;;;;3.25;1.02;;;;;;;20.66;37.89;102322.97;5055764;28;20028;-57
2022/04/03 09:48:39;;;;;;;4.72;1.00;;;;;;;20.64;37.71;102306.34;5055175;28;20033;-57
2022/04/03 09:51:22;;;;;;;2.67;1.55;;;;;;;20.65;37.72;102314.19;5055336;28;20384;-57
2022/04/03 09:53:52;;;;;;;2.55;0.93;;;;;;;20.67;38.02;102314.06;5055562;28;20040;-56
2022/04/03 09:56:20;;;;;;;3.83;1.10;;;;;;;20.68;37.85;102317.56;5054893;28;20451;-56
2022/04/03 09:58:52;;;;;;;3.85;1.50;;;;;;;20.66;37.91;102309.72;5055786;28;20112;-59
2022/04/03 10:01:26;;;;;;;2.75;0.90;;;;;;;20.62;37.60;102303.75;5055606;28;20033;-55
2022/04/03 10:03:52;;;;;;;2.28;1.08;;;;;;;20.61;37.79;102301.22;5054306;28;20113;-57
2022/04/03 10:06:18;;;;;;;1.85;0.80;;;;;;;20.62;37.51;102297.63;5055368;28;20017;-58
2022/04/03 10:08:46;;;;;;;2.40;0.90;;;;;;;20.60;37.67;102288.91;5055343;28;20028;-55
2022/04/03 10:11:13;;;;;;;5.90;0.90;;;;;;;20.61;37.64;102288.81;5053928;28;20033;-57
2022/04/03 10:13:38;;;;;;;2.30;0.85;;;;;;;20.61;37.78;102287.97;5055370;28;20035;-54
2022/04/03 10:16:04;;;;;;;2.70;1.00;;;;;;;20.61;37.42;102287.97;5054801;28;20107;-58
2022/04/03 10:18:30;;;;;;;2.67;1.10;;;;;;;20.59;37.76;102290.72;5054440;28;20025;-58
2022/04/03 10:20:55;;;;;;;2.30;1.15;;;;;;;20.60;37.61;102288.91;5054859;28;20043;-58
2022/04/03 10:23:23;;;;;;;1.98;0.70;;;;;;;20.59;37.65;102282.78;5054271;28;20033;-57
2022/04/03 10:25:51;;;;;;;2.53;1.00;;;;;;;20.57;37.54;102271.47;5053567;28;20082;-58
2022/04/03 10:28:20;;;;;;;2.50;0.90;;;;;;;20.55;37.84;102280.44;5055112;28;20090;-58
2022/04/03 10:30:56;;;;;;;4.00;1.00;;;;;;;20.54;37.82;102276.97;5054222;28;20017;-58
2022/04/03 10:33:24;;;;;;;2.65;0.80;;;;;;;20.53;37.69;102275.25;5054930;28;20430;-59
2022/04/03 10:36:03;;;;;;;2.47;0.90;;;;;;;20.55;37.90;102277.81;5054479;28;20021;-61
2022/04/03 10:39:05;;;;;;;2.28;0.80;;;;;;;20.57;38.66;102276.75;5054282;28;20024;-56
2022/04/03 10:41:34;;;;;;;2.85;1.00;;;;;;;20.56;38.16;102272.41;5051063;28;20037;-58
2022/04/03 10:44:22;;;;;;;1.67;0.73;;;;;;;20.56;38.25;102275.06;5055153;28;20127;-59
2022/04/03 10:47:05;;;;;;;3.00;0.80;;;;;;;20.57;38.09;102271.47;5054640;28;20476;-55
2022/04/03 10:49:57;;;;;;;2.25;0.80;;;;;;;20.57;38.08;102271.47;5054918;28;20059;-56
2022/04/03 10:52:22;;;;;;;1.48;0.65;;;;;;;20.58;37.82;102273.13;5053824;28;20040;-55
2022/04/03 10:54:58;;;;;;;1.83;0.73;;;;;;;20.60;37.91;102265.94;5054560;28;20041;-55
2022/04/03 10:57:44;;;;;;;3.75;0.90;;;;;;;20.61;37.86;102264.13;5054420;28;20360;-55
2022/04/03 11:00:10;;;;;;;1.83;0.65;;;;;;;20.60;37.70;102265.94;5053847;28;20031;-55
2022/04/03 11:02:35;;;;;;;2.42;0.80;;;;;;;20.59;37.49;102258.94;5054606;28;20025;-59
2022/04/03 11:05:24;;;;;;;2.95;0.80;;;;;;;20.58;38.30;102261.69;5054089;28;20053;-57
2022/04/03 11:07:59;;;;;;;2.70;0.82;;;;;;;20.56;38.58;102260.97;5053319;28;20103;-54
2022/04/03 11:11:00;;;;;;;1.90;0.70;;;;;;;20.53;38.05;102254.06;5054244;28;20029;-55
2022/04/03 11:13:37;;;;;;;1.13;0.60;;;;;;;20.52;38.16;102252.41;5053545;28;20049;-55
2022/04/03 11:16:12;;;;;;;2.45;0.80;;;;;;;20.49;38.06;102252.59;5054041;28;20025;-57
2022/04/03 11:18:45;;;;;;;2.10;0.70;;;;;;;20.50;38.31;102251.63;5053900;28;20078;-55
2022/04/03 11:21:21;;;;;;;2.58;0.80;;;;;;;20.50;37.78;102249.00;5052915;28;20550;-58
2022/04/03 11:24:19;;;;;;;1.90;0.90;;;;;;;20.51;38.30;102241.91;5053856;28;20109;-56
2022/04/03 11:26:45;;;;;;;1.48;0.70;;;;;;;20.47;37.86;102239.47;5041110;28;20033;-56